Main page
METAR-TAF:

METAR-TAF

Airports :

Florianópolis, Santa Catarina, Brazil

Hercílio Luz International Airport

latitude: 27-40S, longitude: 048-33W, elevation: 5 m

Current weather observation

The report was made 1 hour and 20 minutes ago, at 23:00 UTC
Wind 2 kt from the Southwest
Temperature 22°C
Humidity 78%
Pressure 1021 hPa
Visibility 10 km or more
Broken clouds at a height of 2700 ft

METAR: SBFL 192300Z 23002KT 9999 BKN027 22/18 Q1021

Time: 21:20 (00:20 UTC)

Forecast

The report was made 2 hours and 50 minutes ago, at 21:30 UTC
Forecast valid from 20 at 00 UTC to 20 at 24 UTC
Wind 11 kt from the North
Visibility 10 km or more
Scattered clouds at a height of 3500 ft
Probability 30% :
Temporary
from 20 at 00 UTC to 20 at 10 UTC
Scattered clouds at a height of 1500 ft
Broken clouds at a height of 3000 ft

TAF: SBFL 192130Z 2000/2024 36011KT 9999 SCT035 TN19/2000Z TX22/2017Z PROB30 TEMPO 2000/2010 SCT015 BKN030 RMK PDN

Weather observations and forecasts of more than 4000 airports (METAR and TAF reports).

The available stations are represented by yellow and red dots on the map.

Hover mouse over dot to see the name of the station.

Then click to see weather observations and forecasts.

To change the map : click on the green buttons with a black cross to zoom in, on the green button with a dash to zoom out, or on the green arrows for adjacent maps.


METAR-TAF: